Time;durP1;ratioP1;P1;durP2;ratioP2;P2;SDS_P1;SDS_P2;PMS_P1;PMS_P2;Temp;Humidity;BMP_temperature;BMP_pressure;BME280_temperature;BME280_humidity;BME280_pressure;Samples;Min_cycle;Max_cycle;Signal;HPM_P1;HPM_P2
2023/01/19 00:46:37;;;;;;;5.40;1.70;;;;;;;7.35;71.46;99768.04;101683;1292;600815;-70
2023/01/19 00:49:04;;;;;;;8.80;4.40;;;;;;;7.39;71.06;99771.63;108343;1266;58104;-71
2023/01/19 00:51:31;;;;;;;10.70;5.20;;;;;;;7.31;70.85;99775.70;106447;1266;59475;-71
2023/01/19 00:54:03;;;;;;;11.70;4.90;;;;;;;7.25;70.95;99785.23;106635;1270;65694;-71
2023/01/19 00:56:31;;;;;;;10.60;5.70;;;;;;;7.18;70.99;99788.86;104664;1272;62715;-71
2023/01/19 00:58:58;;;;;;;13.40;6.20;;;;;;;7.10;70.84;99793.84;104344;1266;173042;-70
2023/01/19 01:01:25;;;;;;;11.20;4.80;;;;;;;7.04;71.01;99798.14;104717;1266;59344;-73
2023/01/19 01:04:13;;;;;;;8.40;4.60;;;;;;;7.05;71.11;99803.42;104658;1268;59400;-73
2023/01/19 01:06:40;;;;;;;8.10;4.50;;;;;;;7.09;71.00;99815.69;104739;1266;65542;-71
2023/01/19 01:09:10;;;;;;;9.20;4.80;;;;;;;7.12;71.04;99814.82;104664;1266;63906;-71
2023/01/19 01:11:38;;;;;;;10.60;4.70;;;;;;;7.13;71.22;99807.75;104513;1268;65222;-71
2023/01/19 01:14:05;;;;;;;10.20;5.60;;;;;;;7.12;71.28;99802.38;104613;1272;59660;-70
2023/01/19 01:16:33;;;;;;;9.60;5.10;;;;;;;7.11;71.32;99801.98;104862;1268;60059;-71
2023/01/19 01:19:00;;;;;;;10.10;5.30;;;;;;;7.07;71.21;99805.90;104648;1264;65382;-72
2023/01/19 01:21:27;;;;;;;20.70;7.10;;;;;;;7.02;71.32;99812.20;104523;1268;62507;-71
2023/01/19 01:23:54;;;;;;;17.00;6.60;;;;;;;6.98;71.45;99814.59;104505;1266;66146;-70
2023/01/19 01:26:21;;;;;;;11.00;6.10;;;;;;;7.02;71.67;99815.90;104631;1264;60092;-71
2023/01/19 01:28:49;;;;;;;11.30;5.60;;;;;;;7.11;71.93;99819.02;104671;1266;59727;-70
2023/01/19 01:31:16;;;;;;;14.10;6.60;;;;;;;7.19;72.20;99825.07;104668;1268;66538;-71
2023/01/19 01:33:43;;;;;;;15.00;6.40;;;;;;;7.26;72.48;99822.66;104598;1268;62750;-71
2023/01/19 01:36:10;;;;;;;13.30;6.70;;;;;;;7.30;72.72;99814.52;104548;1268;66373;-71
2023/01/19 01:38:39;;;;;;;12.70;6.40;;;;;;;7.32;72.72;99808.95;104660;1266;59906;-71
2023/01/19 01:41:06;;;;;;;17.30;7.10;;;;;;;7.30;72.57;99807.40;104581;1268;59571;-70
2023/01/19 01:43:47;;;;;;;11.70;5.70;;;;;;;7.25;72.40;99812.59;104596;1266;66752;-70
2023/01/19 01:46:14;;;;;;;8.30;4.70;;;;;;;7.24;72.09;99815.27;104683;1270;64164;-71
2023/01/19 01:48:45;;;;;;;16.60;6.90;;;;;;;7.21;71.86;99808.36;104785;1268;65308;-70
2023/01/19 01:51:25;;;;;;;11.70;6.20;;;;;;;7.20;71.77;99810.02;104620;1267;59647;-71
2023/01/19 01:54:06;;;;;;;12.00;5.50;;;;;;;7.18;71.91;99809.14;104731;1268;60323;-70
2023/01/19 01:56:40;;;;;;;12.10;6.50;;;;;;;7.13;71.86;99806.21;104656;1268;66329;-70
2023/01/19 01:59:10;;;;;;;10.50;5.10;;;;;;;7.04;71.70;99807.33;104581;1266;62842;-71
2023/01/19 02:04:23;;;;;;;4.70;2.00;;;;;;;6.86;71.57;99816.72;104577;1269;59661;-71
2023/01/19 02:15:17;;;;;;;6.30;1.70;;;;;;;6.63;70.98;99847.34;104989;1262;65349;-70
2023/01/19 02:17:44;;;;;;;8.60;4.10;;;;;;;6.62;71.16;99854.68;105285;1257;59756;-71
2023/01/19 02:20:11;;;;;;;13.30;6.60;;;;;;;6.64;71.32;99859.64;105060;1262;59707;-71
2023/01/19 02:22:48;;;;;;;16.90;6.70;;;;;;;6.69;71.84;99863.28;105180;1260;65626;-71
2023/01/19 02:25:16;;;;;;;11.80;5.90;;;;;;;6.78;72.35;99870.33;104997;1257;63775;-71
2023/01/19 02:27:43;;;;;;;12.50;6.60;;;;;;;6.85;72.53;99866.31;105072;1262;66320;-72
2023/01/19 02:30:10;;;;;;;17.00;7.10;;;;;;;6.88;72.38;99860.32;104972;1264;59750;-70
2023/01/19 02:32:37;;;;;;;11.70;5.10;;;;;;;6.86;72.20;99852.45;105006;1265;59720;-71
2023/01/19 02:35:05;;;;;;;11.90;5.90;;;;;;;6.87;72.01;99841.55;104972;1256;65643;-72
2023/01/19 02:37:35;;;;;;;12.10;5.70;;;;;;;6.91;71.91;99821.08;105141;1262;64137;-70
2023/01/19 02:40:03;;;;;;;10.80;4.60;;;;;;;6.92;71.81;99818.37;105000;1260;66303;-70
2023/01/19 02:42:33;;;;;;;13.30;5.60;;;;;;;6.90;71.63;99834.94;105031;1265;59731;-71
2023/01/19 04:02:48;;;;;;;9.00;4.80;;;;;;;5.92;71.61;99848.39;105356;1265;602930;-54
2023/01/19 04:05:16;;;;;;;7.80;4.70;;;;;;;6.38;70.51;99858.72;106818;1249;254988;-53
2023/01/19 04:07:43;;;;;;;6.50;4.40;;;;;;;6.36;70.65;99862.50;107068;1249;59142;-54
2023/01/19 04:10:11;;;;;;;6.00;4.00;;;;;;;6.36;70.34;99860.44;107244;1249;72967;-54
2023/01/19 04:12:39;;;;;;;9.70;5.20;;;;;;;6.35;70.23;99866.42;106993;1251;62499;-55
2023/01/19 04:15:09;;;;;;;9.10;5.10;;;;;;;6.33;70.33;99869.13;107021;1247;65164;-55
2023/01/19 04:17:37;;;;;;;9.10;5.10;;;;;;;6.30;70.54;99879.12;107081;1247;59366;-54
2023/01/19 04:20:05;;;;;;;12.10;4.50;;;;;;;6.27;70.84;99883.15;107155;1246;59233;-55
2023/01/19 04:22:34;;;;;;;9.20;5.00;;;;;;;6.21;71.00;99884.41;107303;1249;64288;-54
2023/01/19 04:25:01;;;;;;;11.00;5.40;;;;;;;6.15;70.99;99888.18;107031;1247;62326;-55
2023/01/19 04:27:29;;;;;;;19.20;6.00;;;;;;;6.08;71.11;99886.52;106988;1246;64751;-55
2023/01/19 04:29:59;;;;;;;8.00;4.40;;;;;;;6.04;70.90;99878.80;106970;1247;59756;-55
2023/01/19 04:32:26;;;;;;;10.70;4.80;;;;;;;6.03;70.90;99876.79;107052;1249;61324;-55
2023/01/19 04:34:53;;;;;;;10.10;4.60;;;;;;;6.06;71.04;99876.27;106967;1249;73891;-53
2023/01/19 04:37:20;;;;;;;8.00;4.70;;;;;;;6.07;71.41;99880.19;107019;1246;62392;-55
2023/01/19 04:39:47;;;;;;;9.80;5.40;;;;;;;6.05;71.40;99877.73;107194;1246;64755;-54
2023/01/19 04:42:15;;;;;;;6.20;2.80;;;;;;;6.04;71.39;99873.91;107506;1244;59639;-54
2023/01/19 04:44:43;;;;;;;7.20;2.60;;;;;;;5.99;71.21;99875.30;107483;1246;59667;-54
2023/01/19 04:47:10;;;;;;;13.80;6.70;;;;;;;5.92;71.12;99881.32;107306;1246;65033;-54
2023/01/19 04:49:37;;;;;;;11.50;5.40;;;;;;;5.87;71.18;99879.80;107369;1244;62426;-54
2023/01/19 04:52:07;;;;;;;15.40;6.20;;;;;;;5.88;71.18;99875.04;107374;1243;65071;-55
2023/01/19 04:54:34;;;;;;;11.20;5.60;;;;;;;5.93;71.07;99877.30;107457;1244;59634;-54
2023/01/19 04:57:02;;;;;;;10.20;6.70;;;;;;;5.96;71.09;99880.04;107339;1243;59685;-54
2023/01/19 04:59:29;;;;;;;11.60;6.40;;;;;;;5.98;71.33;99889.02;107365;1246;65084;-53
2023/01/19 05:01:56;;;;;;;12.30;5.80;;;;;;;5.98;71.46;99887.21;107202;1246;62499;-53
2023/01/19 05:04:24;;;;;;;10.50;6.20;;;;;;;5.97;71.51;99883.48;107112;1248;65017;-53
2023/01/19 05:06:53;;;;;;;13.60;7.20;;;;;;;5.95;71.59;99877.48;107385;1244;59659;-56
2023/01/19 05:09:20;;;;;;;5.30;2.80;;;;;;;5.93;71.60;99868.20;107383;1244;59855;-54
2023/01/19 05:11:47;;;;;;;18.60;7.30;;;;;;;5.95;71.48;99868.59;107636;1245;64300;-54
2023/01/19 05:14:14;;;;;;;18.60;7.20;;;;;;;6.01;71.38;99871.03;107392;1242;62501;-55
2023/01/19 05:16:41;;;;;;;14.10;7.80;;;;;;;6.04;71.27;99867.70;107243;1246;64942;-53
2023/01/19 05:19:08;;;;;;;19.20;9.20;;;;;;;6.03;71.44;99866.02;107244;1246;59584;-53
2023/01/19 05:21:35;;;;;;;17.80;8.20;;;;;;;6.02;71.57;99867.83;107401;1244;59908;-53
2023/01/19 05:24:02;;;;;;;15.10;8.30;;;;;;;5.99;71.57;99872.03;107423;1246;64896;-53
2023/01/19 05:26:29;;;;;;;23.10;9.90;;;;;;;5.96;71.83;99875.19;107317;1244;62727;-53
2023/01/19 05:28:56;;;;;;;18.10;10.30;;;;;;;5.97;72.20;99872.50;107381;1244;64720;-53
2023/01/19 05:31:23;;;;;;;9.30;3.90;;;;;;;6.05;72.24;99863.43;107197;1244;59691;-54
2023/01/19 05:33:51;;;;;;;18.60;10.70;;;;;;;6.14;72.11;99856.55;107680;1245;59673;-53
2023/01/19 05:36:18;;;;;;;19.30;11.30;;;;;;;6.20;72.19;99864.45;107435;1246;65158;-54
2023/01/19 05:38:45;;;;;;;22.30;12.20;;;;;;;6.23;72.24;99874.73;107402;1246;62635;-54
2023/01/19 05:41:13;;;;;;;10.00;4.10;;;;;;;6.19;72.14;99879.34;107403;1243;64955;-55
2023/01/19 05:43:40;;;;;;;20.70;11.20;;;;;;;6.13;72.13;99868.39;107416;1244;59655;-53
2023/01/19 05:46:06;;;;;;;20.60;13.20;;;;;;;6.07;72.20;99862.03;107303;1247;59644;-53
2023/01/19 05:48:37;;;;;;;9.30;4.20;;;;;;;6.02;72.14;99861.52;107369;1246;65455;-50
2023/01/19 05:51:05;;;;;;;16.90;10.10;;;;;;;6.02;72.15;99862.92;107221;1244;62683;-50
2023/01/19 05:53:32;;;;;;;14.50;9.30;;;;;;;6.05;72.02;99871.98;107284;1246;65084;-50
2023/01/19 05:56:01;;;;;;;13.00;9.00;;;;;;;6.07;71.98;99886.05;107291;1244;59733;-52
2023/01/19 05:58:28;;;;;;;15.90;9.00;;;;;;;6.08;72.04;99901.88;107323;1246;59766;-49
2023/01/19 06:00:55;;;;;;;14.90;8.20;;;;;;;6.08;72.27;99911.98;107154;1246;65254;-49
2023/01/19 06:03:22;;;;;;;17.70;9.70;;;;;;;6.11;72.48;99918.73;107297;1246;62431;-49
2023/01/19 06:05:49;;;;;;;9.10;4.60;;;;;;;6.12;72.42;99914.81;107476;1246;64905;-49
2023/01/19 06:08:17;;;;;;;19.30;9.80;;;;;;;6.09;72.38;99908.09;107454;1244;59573;-48
2023/01/19 06:10:44;;;;;;;19.90;9.70;;;;;;;6.05;72.34;99891.45;107427;1244;59635;-48
2023/01/19 06:13:11;;;;;;;7.60;3.10;;;;;;;6.07;72.38;99869.51;107356;1246;65138;-48
2023/01/19 06:15:39;;;;;;;6.60;3.20;;;;;;;6.12;72.19;99853.04;107462;1246;62474;-49
2023/01/19 06:18:06;;;;;;;16.20;6.80;;;;;;;6.12;72.04;99840.27;107350;1246;64629;-49
2023/01/19 06:20:35;;;;;;;7.40;3.90;;;;;;;6.13;72.31;99830.65;107552;1243;59851;-49
2023/01/19 06:23:02;;;;;;;14.60;9.00;;;;;;;6.14;72.37;99833.89;107415;1246;59723;-48
2023/01/19 06:25:30;;;;;;;14.60;7.90;;;;;;;6.10;72.42;99836.73;107498;1246;64319;-48
2023/01/19 06:27:57;;;;;;;5.50;2.40;;;;;;;6.02;72.49;99843.06;107419;1247;61677;-48
2023/01/19 06:30:25;;;;;;;5.50;2.20;;;;;;;5.91;72.51;99840.65;107395;1246;64614;-48
2023/01/19 06:32:52;;;;;;;13.60;6.90;;;;;;;5.80;72.58;99832.36;107466;1245;59579;-49
2023/01/19 06:35:20;;;;;;;13.30;6.90;;;;;;;5.72;72.83;99848.60;107434;1244;60295;-49
2023/01/19 06:37:47;;;;;;;7.50;5.50;;;;;;;5.70;72.90;99852.18;107481;1246;64474;-48
2023/01/19 06:40:14;;;;;;;5.60;2.10;;;;;;;5.73;72.95;99841.25;107407;1243;62183;-48
2023/01/19 06:42:41;;;;;;;4.50;1.50;;;;;;;5.78;73.13;99832.53;107303;1244;64115;-49
2023/01/19 06:45:09;;;;;;;7.40;4.90;;;;;;;5.86;73.33;99828.16;107439;1244;59752;-49
2023/01/19 06:47:36;;;;;;;7.50;4.40;;;;;;;6.05;73.21;99826.13;107397;1244;59788;-48
2023/01/19 06:50:04;;;;;;;7.00;4.40;;;;;;;6.17;73.31;99813.67;107503;1246;65146;-49
2023/01/19 06:52:31;;;;;;;6.70;4.50;;;;;;;6.25;73.46;99812.42;107543;1245;62570;-48
2023/01/19 06:54:58;;;;;;;7.40;4.80;;;;;;;6.28;73.28;99807.98;107376;1246;64625;-48
2023/01/19 06:57:25;;;;;;;8.70;4.90;;;;;;;6.22;73.71;99799.04;107433;1248;59756;-49
2023/01/19 06:59:57;;;;;;;7.60;4.90;;;;;;;6.30;73.62;99790.81;107312;1244;59739;-49
2023/01/19 07:02:25;;;;;;;7.20;4.30;;;;;;;6.39;73.38;99785.41;107395;1246;65283;-48
2023/01/19 07:04:55;;;;;;;7.10;4.70;;;;;;;6.48;73.06;99783.41;107362;1244;62376;-49
2023/01/19 07:07:22;;;;;;;10.30;4.70;;;;;;;6.52;72.87;99786.25;107419;1248;64815;-49
2023/01/19 07:09:49;;;;;;;9.90;5.30;;;;;;;6.55;72.82;99791.27;107800;1246;59648;-49
2023/01/19 07:12:21;;;;;;;9.20;5.70;;;;;;;6.53;73.11;99790.72;107240;1247;59696;-51
2023/01/19 07:14:49;;;;;;;13.60;6.00;;;;;;;6.55;73.11;99795.27;107391;1245;64019;-52
2023/01/19 07:17:16;;;;;;;8.80;5.80;;;;;;;6.57;73.26;99801.55;107369;1246;62455;-53
2023/01/19 07:19:43;;;;;;;6.10;2.20;;;;;;;6.65;73.24;99819.94;107291;1247;64616;-49
2023/01/19 07:22:10;;;;;;;11.00;6.40;;;;;;;6.73;72.94;99817.46;107220;1243;59767;-49
2023/01/19 07:24:37;;;;;;;9.20;5.60;;;;;;;6.81;72.93;99814.42;107439;1243;59698;-49
2023/01/19 07:27:04;;;;;;;11.30;7.50;;;;;;;6.89;73.07;99808.65;107240;1245;65156;-50
2023/01/19 07:29:31;;;;;;;7.00;3.30;;;;;;;6.93;73.10;99804.40;107576;1244;62586;-49
2023/01/19 07:31:58;;;;;;;12.30;7.90;;;;;;;6.96;72.99;99803.75;107238;1247;64661;-49
2023/01/19 07:34:25;;;;;;;13.50;7.70;;;;;;;6.99;72.63;99802.16;107245;1246;59806;-49
2023/01/19 07:36:52;;;;;;;15.50;7.90;;;;;;;6.98;72.44;99796.14;107205;1248;59640;-49
2023/01/19 07:39:19;;;;;;;13.00;8.40;;;;;;;6.97;72.40;99794.33;107172;1250;65245;-51
2023/01/19 07:41:47;;;;;;;7.20;2.90;;;;;;;7.00;72.32;99791.98;107272;1244;62710;-51
2023/01/19 07:44:17;;;;;;;13.50;9.10;;;;;;;7.03;72.19;99794.16;107321;1247;63994;-52
2023/01/19 08:14:03;;;;;;;6.10;3.90;;;;;;;8.09;69.64;99823.60;102844;1286;605035;-53
2023/01/19 08:16:34;;;;;;;5.50;3.00;;;;;;;8.39;68.87;99837.67;104576;1267;85563;-51
2023/01/19 08:19:01;;;;;;;6.20;3.20;;;;;;;8.35;69.08;99838.36;104555;1269;59335;-52
2023/01/19 08:21:28;;;;;;;6.20;3.40;;;;;;;8.28;69.58;99831.02;104632;1269;65842;-53
2023/01/19 08:23:56;;;;;;;6.00;3.50;;;;;;;8.19;70.01;99836.14;104673;1267;64176;-53
2023/01/19 08:26:29;;;;;;;6.00;3.60;;;;;;;8.08;70.36;99840.51;105125;1264;65151;-52
2023/01/19 08:28:57;;;;;;;5.90;3.40;;;;;;;7.97;70.85;99845.90;104580;1269;59348;-53
2023/01/19 08:31:24;;;;;;;6.50;3.50;;;;;;;7.88;71.07;99847.76;104763;1269;59399;-53
2023/01/19 08:33:51;;;;;;;8.00;3.90;;;;;;;7.86;71.40;99846.38;104706;1267;64786;-52
2023/01/19 08:36:19;;;;;;;6.70;3.60;;;;;;;7.77;71.66;99843.38;104459;1267;64203;-52
2023/01/19 08:38:46;;;;;;;6.90;4.00;;;;;;;7.69;72.09;99845.10;104759;1268;65024;-51
2023/01/19 08:41:15;;;;;;;7.30;4.40;;;;;;;7.67;72.41;99843.31;104689;1263;59653;-53
2023/01/19 08:43:43;;;;;;;7.20;4.30;;;;;;;7.58;72.81;99846.20;104808;1261;59730;-51
2023/01/19 08:46:10;;;;;;;6.20;4.10;;;;;;;7.52;73.13;99842.86;104741;1263;66790;-51
2023/01/19 08:48:37;;;;;;;6.10;3.40;;;;;;;7.54;73.12;99838.17;104763;1266;64325;-51
2023/01/19 08:51:05;;;;;;;6.80;3.80;;;;;;;7.58;73.17;99835.89;105062;1266;65180;-52
2023/01/19 08:53:33;;;;;;;6.90;3.30;;;;;;;7.62;72.98;99828.65;104682;1263;59819;-52
2023/01/19 08:56:01;;;;;;;7.30;3.90;;;;;;;7.67;72.91;99821.52;105135;1258;59762;-50
2023/01/19 08:58:28;;;;;;;6.70;4.00;;;;;;;7.63;73.10;99810.91;105136;1263;68446;-51
2023/01/19 09:00:55;;;;;;;6.50;4.00;;;;;;;7.60;73.26;99807.84;105143;1257;63911;-51
2023/01/19 09:03:22;;;;;;;6.10;3.20;;;;;;;7.56;73.33;99811.13;105085;1260;66502;-51
2023/01/19 09:05:49;;;;;;;6.20;3.90;;;;;;;7.58;73.31;99819.54;104913;1260;59890;-53
2023/01/19 09:08:16;;;;;;;6.70;3.80;;;;;;;7.61;73.34;99818.58;105033;1262;59945;-51
2023/01/19 09:10:46;;;;;;;5.20;3.20;;;;;;;7.65;73.49;99816.02;105136;1257;65241;-50
2023/01/19 09:13:13;;;;;;;6.30;3.70;;;;;;;7.71;73.76;99812.11;105214;1257;63536;-50
2023/01/19 09:15:41;;;;;;;7.80;4.20;;;;;;;7.75;73.88;99807.75;105099;1257;65291;-50
2023/01/19 09:18:14;;;;;;;6.90;4.00;;;;;;;7.75;73.87;99798.68;105002;1257;60270;-50
2023/01/19 09:20:42;;;;;;;6.90;4.30;;;;;;;7.77;73.82;99791.67;105066;1260;60086;-52
2023/01/19 09:23:10;;;;;;;7.20;4.60;;;;;;;7.76;73.81;99793.88;105135;1257;66689;-51
2023/01/19 09:25:37;;;;;;;6.20;3.60;;;;;;;7.75;73.80;99792.89;105100;1258;63617;-52
2023/01/19 09:28:06;;;;;;;9.30;4.00;;;;;;;7.78;73.79;99794.97;105151;1257;66372;-51
2023/01/19 09:30:36;;;;;;;7.80;4.50;;;;;;;7.76;73.65;99796.30;105413;1263;59832;-51
2023/01/19 09:33:05;;;;;;;7.00;4.40;;;;;;;7.73;73.68;99792.23;105180;1257;59647;-51
2023/01/19 09:35:33;;;;;;;6.70;4.30;;;;;;;7.69;73.90;99784.52;105046;1257;65421;-51
2023/01/19 09:38:00;;;;;;;5.70;3.50;;;;;;;7.66;73.90;99780.16;105302;1257;64378;-49
2023/01/19 09:40:27;;;;;;;7.20;4.10;;;;;;;7.72;73.93;99777.09;105046;1257;65141;-50
2023/01/19 09:42:56;;;;;;;6.10;3.80;;;;;;;7.78;73.89;99767.70;104951;1261;59602;-51
2023/01/19 09:45:44;;;;;;;6.40;4.10;;;;;;;7.80;73.80;99766.30;105416;1262;59624;-50
2023/01/19 09:48:33;;;;;;;7.60;4.20;;;;;;;7.86;74.05;99762.36;105205;1257;65357;-51
2023/01/19 09:51:06;;;;;;;7.70;4.30;;;;;;;7.95;73.90;99758.30;105131;1257;63801;-51
2023/01/19 09:53:46;;;;;;;8.60;4.80;;;;;;;7.92;74.26;99750.52;105145;1260;65143;-52
2023/01/19 09:56:14;;;;;;;7.20;4.80;;;;;;;7.92;74.33;99744.29;105244;1258;59641;-50
2023/01/19 09:58:41;;;;;;;6.70;4.30;;;;;;;7.94;74.29;99740.27;105124;1258;59634;-53
2023/01/19 10:01:32;;;;;;;7.40;5.00;;;;;;;7.97;74.14;99737.06;105023;1257;73137;-51
2023/01/19 10:04:21;;;;;;;6.90;4.60;;;;;;;8.00;74.10;99736.48;104963;1263;62703;-52
2023/01/19 10:06:48;;;;;;;7.50;4.80;;;;;;;8.02;74.11;99733.72;105042;1259;65327;-49
2023/01/19 10:09:21;;;;;;;8.00;4.90;;;;;;;8.06;74.29;99728.15;104631;1260;59758;-49
2023/01/19 10:11:56;;;;;;;10.00;5.90;;;;;;;8.07;74.46;99726.98;104748;1258;59670;-51
2023/01/19 10:14:32;;;;;;;6.50;2.40;;;;;;;8.08;74.40;99717.55;108812;1257;66761;-50
2023/01/19 10:17:21;;;;;;;9.80;5.50;;;;;;;8.14;74.08;99713.56;108921;1257;62872;-50
2023/01/19 10:19:52;;;;;;;8.70;5.80;;;;;;;8.21;73.94;99708.45;108848;1257;66302;-50
2023/01/19 10:22:24;;;;;;;11.20;6.40;;;;;;;8.26;73.72;99705.39;106233;1263;59901;-49
2023/01/19 10:24:53;;;;;;;10.10;6.70;;;;;;;8.29;73.92;99704.30;105301;1258;59614;-49
2023/01/19 10:27:27;;;;;;;11.30;7.70;;;;;;;8.32;74.06;99708.95;105468;1257;65468;-49
2023/01/19 10:29:54;;;;;;;11.30;8.30;;;;;;;8.34;74.19;99707.16;105371;1263;62807;-49
2023/01/19 10:32:26;;;;;;;11.10;7.30;;;;;;;8.36;74.15;99705.47;105241;1260;66134;-49
2023/01/19 10:34:53;;;;;;;11.20;6.70;;;;;;;8.42;73.96;99702.91;105359;1258;59749;-49
2023/01/19 10:37:30;;;;;;;12.60;7.30;;;;;;;8.46;73.69;99701.52;105323;1263;59730;-49
2023/01/19 10:40:14;;;;;;;10.80;6.60;;;;;;;8.51;73.91;99698.13;105216;1257;73580;-49
2023/01/19 10:42:41;;;;;;;14.90;8.40;;;;;;;8.54;74.07;99691.74;105498;1257;63474;-50
2023/01/19 10:45:20;;;;;;;13.10;8.20;;;;;;;8.54;74.19;99688.96;104959;1263;66857;-50
2023/01/19 10:47:47;;;;;;;16.00;9.30;;;;;;;8.54;74.44;99682.00;105273;1263;59714;-50
2023/01/19 10:50:17;;;;;;;13.90;7.80;;;;;;;8.57;74.64;99683.01;105147;1257;59714;-49
2023/01/19 10:52:44;;;;;;;18.20;8.70;;;;;;;8.63;74.46;99686.19;105165;1263;65288;-50
2023/01/19 10:55:23;;;;;;;13.20;8.50;;;;;;;8.73;74.48;99690.73;105143;1258;63628;-50
2023/01/19 10:57:51;;;;;;;17.00;8.80;;;;;;;8.86;74.52;99690.38;105366;1261;66331;-50
2023/01/19 11:00:39;;;;;;;16.10;9.60;;;;;;;8.95;74.48;99683.85;105335;1263;59736;-50
2023/01/19 11:03:29;;;;;;;17.70;10.50;;;;;;;8.99;74.50;99676.18;105584;1262;59624;-51
2023/01/19 11:06:12;;;;;;;20.00;11.00;;;;;;;9.00;74.57;99666.83;105326;1257;65549;-50
2023/01/19 11:08:39;;;;;;;23.00;10.40;;;;;;;8.98;74.73;99657.20;105295;1257;63790;-50
2023/01/19 11:11:07;;;;;;;13.60;9.20;;;;;;;8.95;74.80;99653.42;105377;1260;66221;-50
2023/01/19 11:13:35;;;;;;;17.00;9.00;;;;;;;9.01;74.85;99654.13;105262;1259;59711;-51
2023/01/19 11:16:24;;;;;;;15.20;8.70;;;;;;;9.11;74.89;99646.23;105244;1263;60332;-50
2023/01/19 11:18:52;;;;;;;16.60;8.40;;;;;;;9.18;74.81;99642.84;105151;1263;66519;-50
2023/01/19 11:21:22;;;;;;;18.20;9.80;;;;;;;9.22;74.77;99635.66;105277;1257;64137;-50
2023/01/19 11:24:04;;;;;;;15.00;9.50;;;;;;;9.22;74.87;99637.23;105335;1260;66143;-50
2023/01/19 11:26:42;;;;;;;22.50;10.10;;;;;;;9.25;75.10;99636.62;105236;1262;59660;-51
2023/01/19 11:29:27;;;;;;;21.80;10.50;;;;;;;9.27;75.21;99635.41;105224;1258;62346;-51
2023/01/19 11:31:58;;;;;;;16.50;9.30;;;;;;;9.27;75.19;99630.70;105172;1263;66502;-51
2023/01/19 11:34:29;;;;;;;19.10;8.80;;;;;;;9.29;74.94;99624.81;105074;1257;63760;-51
2023/01/19 11:37:19;;;;;;;15.50;8.80;;;;;;;9.35;75.08;99624.45;105314;1257;65037;-51
2023/01/19 11:39:49;;;;;;;17.70;8.50;;;;;;;9.43;75.11;99620.73;105253;1262;59850;-53
2023/01/19 11:42:16;;;;;;;19.50;9.30;;;;;;;9.52;75.13;99619.15;105237;1261;59748;-50
2023/01/19 11:45:02;;;;;;;18.00;10.50;;;;;;;9.56;75.18;99615.45;105290;1257;66231;-50
2023/01/19 11:47:37;;;;;;;18.80;10.60;;;;;;;9.58;75.19;99610.35;105395;1257;63736;-50
2023/01/19 11:50:13;;;;;;;23.70;10.60;;;;;;;9.57;75.25;99611.48;105255;1262;66309;-51
2023/01/19 11:52:48;;;;;;;20.40;10.00;;;;;;;9.56;75.24;99612.77;105248;1263;59684;-51
2023/01/19 11:57:51;;;;;;;23.40;10.00;;;;;;;9.51;76.04;99619.51;102083;1295;603277;-72
2023/01/19 12:00:34;;;;;;;17.00;8.90;;;;;;;9.78;75.53;99624.88;108262;1267;58468;-73
2023/01/19 12:03:30;;;;;;;20.80;9.70;;;;;;;9.93;75.41;99631.63;107870;1267;59452;-73
2023/01/19 12:06:01;;;;;;;20.80;10.40;;;;;;;10.01;75.29;99630.51;105372;1271;65753;-73
2023/01/19 12:08:32;;;;;;;22.10;10.10;;;;;;;10.04;75.12;99624.30;104457;1272;63012;-74
2023/01/19 12:10:58;;;;;;;22.70;10.00;;;;;;;10.04;75.03;99634.48;104658;1264;182905;-72
2023/01/19 12:13:26;;;;;;;17.90;8.50;;;;;;;10.08;75.04;99634.27;104538;1267;59531;-73
2023/01/19 12:16:19;;;;;;;24.50;9.30;;;;;;;10.16;74.94;99632.34;104551;1269;59557;-73
2023/01/19 12:18:59;;;;;;;22.00;9.20;;;;;;;10.23;75.07;99630.66;104985;1264;64340;-71
2023/01/19 12:21:26;;;;;;;25.50;9.30;;;;;;;10.27;75.03;99634.72;104576;1269;62600;-73
2023/01/19 12:24:15;;;;;;;23.30;9.80;;;;;;;10.28;75.16;99635.64;104560;1264;65151;-72
2023/01/19 12:26:57;;;;;;;23.40;9.40;;;;;;;10.31;75.14;99629.64;104754;1269;59768;-73
2023/01/19 12:29:29;;;;;;;21.50;8.40;;;;;;;10.32;74.93;99622.48;104792;1264;59624;-71
2023/01/19 12:32:12;;;;;;;21.00;9.00;;;;;;;10.37;74.91;99618.57;104772;1263;65459;-70
2023/01/19 12:34:42;;;;;;;30.00;10.40;;;;;;;10.44;74.92;99624.10;104639;1269;62683;-71
2023/01/19 12:37:36;;;;;;;28.60;10.70;;;;;;;10.47;74.91;99625.22;104744;1264;65878;-72
2023/01/19 12:40:27;;;;;;;24.30;9.90;;;;;;;10.50;75.00;99624.95;104844;1265;59777;-71
2023/01/19 12:43:02;;;;;;;23.40;9.10;;;;;;;10.50;74.87;99634.56;104606;1263;59746;-71
2023/01/19 12:45:38;;;;;;;28.30;8.70;;;;;;;10.51;74.79;99647.40;104843;1263;66897;-71
2023/01/19 12:48:22;;;;;;;25.70;9.10;;;;;;;10.59;74.77;99647.79;104587;1268;62711;-72
2023/01/19 12:50:49;;;;;;;26.40;8.60;;;;;;;10.64;74.47;99638.55;104521;1272;65933;-73
2023/01/19 12:53:18;;;;;;;22.70;9.70;;;;;;;10.66;74.28;99634.50;104691;1261;59772;-73
2023/01/19 12:55:46;;;;;;;30.00;10.20;;;;;;;10.66;74.35;99639.26;104918;1261;59734;-72
2023/01/19 12:58:19;;;;;;;27.30;10.00;;;;;;;10.62;74.34;99634.20;104900;1260;66552;-72
2023/01/19 13:00:48;;;;;;;26.10;8.60;;;;;;;10.64;74.28;99635.09;104929;1261;63274;-72
2023/01/19 13:03:15;;;;;;;21.10;8.20;;;;;;;10.68;74.19;99633.98;105115;1262;65093;-73
2023/01/19 13:05:42;;;;;;;27.90;8.20;;;;;;;10.70;74.25;99637.88;105016;1257;61110;-72
2023/01/19 13:08:09;;;;;;;23.00;9.20;;;;;;;10.70;74.25;99637.15;105050;1263;59601;-72
2023/01/19 13:10:53;;;;;;;21.60;9.30;;;;;;;10.68;74.29;99634.64;105051;1263;67109;-71
2023/01/19 13:13:25;;;;;;;22.90;7.90;;;;;;;10.69;74.40;99635.08;105317;1262;62812;-73
2023/01/19 13:15:53;;;;;;;23.10;7.90;;;;;;;10.73;74.04;99637.36;104976;1257;64893;-71
2023/01/19 13:18:34;;;;;;;31.90;8.00;;;;;;;10.75;73.92;99637.34;105009;1264;59611;-72
2023/01/19 13:21:03;;;;;;;29.50;9.30;;;;;;;10.77;73.96;99640.16;105250;1258;59669;-72
2023/01/19 13:23:45;;;;;;;20.30;8.90;;;;;;;10.78;74.02;99643.19;105062;1262;66639;-71
2023/01/19 13:26:13;;;;;;;28.40;9.60;;;;;;;10.77;73.95;99642.43;105149;1263;63119;-72
2023/01/19 13:28:42;;;;;;;27.80;9.30;;;;;;;10.75;73.90;99642.66;105082;1263;65966;-71
2023/01/19 13:31:09;;;;;;;21.90;8.20;;;;;;;10.76;73.84;99644.59;105253;1261;59743;-71
2023/01/19 13:33:58;;;;;;;18.80;7.30;;;;;;;10.81;73.82;99644.55;105013;1262;59688;-71
2023/01/19 13:36:36;;;;;;;20.10;8.80;;;;;;;10.85;73.64;99640.30;105036;1257;65597;-75
2023/01/19 13:39:05;;;;;;;21.90;8.40;;;;;;;10.85;73.65;99643.26;105188;1257;63531;-72
2023/01/19 13:41:36;;;;;;;21.10;8.90;;;;;;;10.78;73.94;99644.26;105182;1260;66429;-73
2023/01/19 13:44:18;;;;;;;26.00;7.50;;;;;;;10.74;74.20;99642.05;104959;1260;59769;-71
2023/01/19 13:46:45;;;;;;;25.10;7.80;;;;;;;10.77;73.99;99642.06;105284;1257;59753;-72
2023/01/19 13:49:18;;;;;;;16.00;7.30;;;;;;;10.86;73.72;99651.77;105259;1257;65224;-72
2023/01/19 13:52:09;;;;;;;22.40;8.40;;;;;;;10.91;73.70;99653.55;104991;1260;62794;-73
2023/01/19 13:54:36;;;;;;;24.70;9.30;;;;;;;10.88;73.89;99656.03;104978;1260;65964;-71
2023/01/19 16:13:47;;;;;;;23.30;8.30;;;;;;;11.91;72.20;99649.35;103044;1282;604137;-54
2023/01/19 16:16:18;;;;;;;15.60;7.20;;;;;;;12.35;70.86;99657.61;104857;1268;83332;-54
2023/01/19 16:18:45;;;;;;;16.80;7.00;;;;;;;12.35;70.68;99656.41;104860;1264;59978;-52
2023/01/19 16:21:12;;;;;;;20.10;6.80;;;;;;;12.33;70.54;99660.64;105168;1263;64175;-53
2023/01/19 16:23:39;;;;;;;22.90;7.70;;;;;;;12.32;70.41;99660.40;105015;1260;62264;-51
2023/01/19 16:26:20;;;;;;;17.90;7.80;;;;;;;12.30;70.51;99659.36;105237;1260;64981;-54
2023/01/19 16:28:46;;;;;;;18.80;8.20;;;;;;;12.25;70.69;99661.02;104919;1266;59394;-52
2023/01/19 16:31:15;;;;;;;22.20;8.50;;;;;;;12.21;70.78;99664.47;105059;1263;59637;-51
2023/01/19 16:33:43;;;;;;;20.00;8.50;;;;;;;12.15;70.86;99663.42;105064;1266;64316;-51
2023/01/19 16:36:40;;;;;;;16.80;7.10;;;;;;;12.12;70.91;99659.73;105044;1266;61643;-52
2023/01/19 16:39:11;;;;;;;19.30;7.80;;;;;;;12.12;71.09;99657.63;104877;1266;64716;-52
2023/01/19 16:41:38;;;;;;;22.70;7.20;;;;;;;12.13;71.00;99656.26;105040;1261;59778;-53
2023/01/19 16:44:05;;;;;;;20.40;8.30;;;;;;;12.14;71.06;99651.09;105108;1265;59637;-53